Time;durP1;ratioP1;P1;durP2;ratioP2;P2;SDS_P1;SDS_P2;PMS_P1;PMS_P2;Temp;Humidity;BMP_temperature;BMP_pressure;BME280_temperature;BME280_humidity;BME280_pressure;Samples;Min_cycle;Max_cycle;Signal;HPM_P1;HPM_P2
2022/12/07 08:31:52;;;;;;;10.63;4.60;;;5.00;99.90;;;;;;4857889;29;20238;-71
2022/12/07 08:34:18;;;;;;;9.83;4.97;;;5.00;99.90;;;;;;4860347;29;20424;-72
2022/12/07 08:36:45;;;;;;;13.13;5.40;;;5.10;99.90;;;;;;4860127;29;20774;-75
2022/12/07 08:39:12;;;;;;;11.00;5.30;;;5.20;99.90;;;;;;4853679;29;20299;-69
2022/12/07 08:41:39;;;;;;;8.13;4.93;;;5.20;99.90;;;;;;4859567;29;20252;-74
2022/12/07 08:44:06;;;;;;;7.00;4.30;;;5.20;99.90;;;;;;4854374;29;20211;-73
2022/12/07 08:46:38;;;;;;;7.27;4.33;;;5.10;99.90;;;;;;4858118;29;20251;-73
2022/12/07 08:49:10;;;;;;;6.30;3.83;;;5.20;99.90;;;;;;4858680;29;20235;-72
2022/12/07 08:51:37;;;;;;;6.73;3.97;;;5.30;99.90;;;;;;4857929;29;20214;-68
2022/12/07 08:54:08;;;;;;;7.47;3.80;;;5.40;99.90;;;;;;4859043;29;20302;-71
2022/12/07 08:56:36;;;;;;;10.93;4.23;;;5.50;99.90;;;;;;4862193;29;20251;-73
2022/12/07 08:59:04;;;;;;;7.87;4.57;;;5.50;99.90;;;;;;4861611;29;20208;-79
2022/12/07 09:01:31;;;;;;;8.27;4.13;;;5.60;99.90;;;;;;4862265;29;20763;-72
2022/12/07 09:03:57;;;;;;;8.30;4.80;;;5.60;99.90;;;;;;4862539;29;20216;-79
2022/12/07 09:06:26;;;;;;;12.67;5.33;;;5.70;99.90;;;;;;4861713;29;20244;-75
2022/12/07 09:08:58;;;;;;;9.97;5.10;;;5.80;99.90;;;;;;4860741;29;20222;-78
2022/12/07 09:11:25;;;;;;;10.03;4.20;;;5.90;99.90;;;;;;4875570;29;20586;-73
2022/12/07 09:13:52;;;;;;;9.20;4.23;;;6.00;99.90;;;;;;4865175;29;20212;-72
2022/12/07 09:16:19;;;;;;;8.97;4.97;;;6.20;99.90;;;;;;4866414;29;20641;-73
2022/12/07 09:18:45;;;;;;;6.93;4.50;;;6.40;99.90;;;;;;4861082;29;20215;-72
2022/12/07 09:21:12;;;;;;;8.43;4.10;;;6.60;99.90;;;;;;4861475;29;20667;-73
2022/12/07 09:23:42;;;;;;;5.87;3.53;;;6.80;99.90;;;;;;4861860;29;20216;-71
2022/12/07 09:26:09;;;;;;;8.87;4.23;;;6.90;99.90;;;;;;4861830;29;20483;-75
2022/12/07 09:28:35;;;;;;;5.97;3.70;;;7.00;99.90;;;;;;4861435;29;20215;-72
2022/12/07 09:31:04;;;;;;;6.90;4.57;;;7.00;99.90;;;;;;4861470;29;20215;-75
2022/12/07 09:33:30;;;;;;;6.00;3.60;;;7.10;99.90;;;;;;4861361;29;20571;-76
2022/12/07 09:35:57;;;;;;;7.53;3.60;;;7.30;99.90;;;;;;4862227;29;20689;-79
2022/12/07 09:38:26;;;;;;;5.30;3.30;;;7.30;99.90;;;;;;4862930;29;20567;-75
2022/12/07 09:40:55;;;;;;;5.10;3.23;;;7.40;99.90;;;;;;4862905;29;20679;-75
2022/12/07 09:43:24;;;;;;;8.60;2.80;;;7.40;99.90;;;;;;4862543;29;20210;-77
2022/12/07 09:45:54;;;;;;;6.47;2.57;;;7.40;99.90;;;;;;4862317;29;20702;-75
2022/12/07 09:48:23;;;;;;;6.27;2.83;;;8.50;99.90;;;;;;4862448;29;20219;-75
2022/12/07 09:50:51;;;;;;;7.43;3.03;;;9.10;99.90;;;;;;4862690;29;20216;-76
2022/12/07 09:53:27;;;;;;;5.47;3.20;;;9.20;99.90;;;;;;4862457;29;20212;-76
2022/12/07 09:55:56;;;;;;;7.10;2.70;;;9.00;99.90;;;;;;4862571;29;20222;-76
2022/12/07 09:58:26;;;;;;;5.93;3.10;;;8.80;99.90;;;;;;4862146;29;20212;-73
2022/12/07 10:00:56;;;;;;;4.80;2.70;;;8.70;99.90;;;;;;4862185;29;20754;-74
2022/12/07 10:03:23;;;;;;;7.27;2.70;;;8.50;99.90;;;;;;4859726;29;20220;-77
2022/12/07 10:05:52;;;;;;;5.73;3.30;;;8.50;99.90;;;;;;4859099;29;20234;-82
2022/12/07 10:08:19;;;;;;;4.80;2.80;;;8.60;99.90;;;;;;4861563;29;20219;-78
2022/12/07 10:10:52;;;;;;;6.33;2.67;;;8.70;99.90;;;;;;4861168;29;20218;-78
2022/12/07 10:13:23;;;;;;;5.67;3.23;;;8.60;99.90;;;;;;4861223;29;20733;-78
2022/12/07 10:15:52;;;;;;;5.23;2.53;;;8.40;99.90;;;;;;4856784;29;20224;-76
2022/12/07 10:18:22;;;;;;;6.67;2.20;;;8.50;99.90;;;;;;4843564;29;20239;-79
2022/12/07 10:20:49;;;;;;;14.10;3.13;;;8.50;99.90;;;;;;4850840;29;20566;-78
2022/12/07 10:23:17;;;;;;;3.83;2.40;;;8.50;99.90;;;;;;4862130;29;20208;-79
2022/12/07 10:25:45;;;;;;;8.20;2.87;;;8.50;99.90;;;;;;4861592;29;20212;-77
2022/12/07 10:28:15;;;;;;;4.30;2.70;;;8.50;99.90;;;;;;4861706;29;20774;-77
2022/12/07 10:31:01;;;;;;;6.20;2.80;;;8.50;99.90;;;;;;4861761;29;20235;-79
2022/12/07 10:33:34;;;;;;;4.80;2.27;;;8.60;99.90;;;;;;4862002;29;20286;-78
2022/12/07 10:36:01;;;;;;;6.97;2.37;;;8.60;99.90;;;;;;4861632;29;20339;-76
2022/12/07 10:38:31;;;;;;;7.87;2.60;;;8.40;99.90;;;;;;4861723;29;20559;-73
2022/12/07 10:41:05;;;;;;;8.43;2.30;;;8.30;99.90;;;;;;4862091;29;20211;-78
2022/12/07 10:43:33;;;;;;;5.57;1.83;;;8.20;99.90;;;;;;4861640;29;20218;-77
2022/12/07 10:46:39;;;;;;;4.50;2.00;;;8.20;99.90;;;;;;4860013;29;20300;-77
2022/12/07 10:49:25;;;;;;;2.47;1.57;;;8.20;99.90;;;;;;4862086;29;20222;-77
2022/12/07 10:52:02;;;;;;;5.57;2.20;;;8.10;99.90;;;;;;4861342;29;20216;-78
2022/12/07 10:54:40;;;;;;;3.23;1.70;;;8.20;99.90;;;;;;4861056;29;20207;-75
2022/12/07 10:57:22;;;;;;;5.07;2.10;;;7.90;99.90;;;;;;4861427;29;20629;-76
2022/12/07 11:00:03;;;;;;;4.37;1.97;;;7.90;99.90;;;;;;4861288;29;20211;-76
2022/12/07 11:03:01;;;;;;;4.00;1.83;;;7.90;99.90;;;;;;4861078;29;20215;-78
2022/12/07 11:05:39;;;;;;;5.40;1.90;;;8.00;99.90;;;;;;4860427;29;20839;-78
2022/12/07 11:08:16;;;;;;;4.57;2.10;;;8.00;99.90;;;;;;4861084;29;20265;-75
2022/12/07 11:10:48;;;;;;;3.43;1.93;;;7.80;99.90;;;;;;4861202;29;20212;-78
2022/12/07 11:13:28;;;;;;;7.03;1.90;;;7.70;99.90;;;;;;4860077;29;20211;-79
2022/12/07 11:16:22;;;;;;;3.50;1.80;;;7.80;99.90;;;;;;4860454;29;20687;-78
2022/12/07 11:19:03;;;;;;;5.73;1.80;;;7.90;99.90;;;;;;4859484;29;20226;-79
2022/12/07 11:21:40;;;;;;;3.73;1.93;;;8.10;99.90;;;;;;4861272;29;20216;-79
2022/12/07 11:24:13;;;;;;;3.80;2.27;;;8.10;99.90;;;;;;4861116;29;20685;-76
2022/12/07 11:26:57;;;;;;;5.00;2.23;;;8.20;99.90;;;;;;4860746;29;20258;-77
2022/12/07 11:29:38;;;;;;;5.23;2.20;;;8.20;99.90;;;;;;4860721;29;20312;-78
2022/12/07 11:32:12;;;;;;;7.07;2.00;;;8.30;99.90;;;;;;4860655;29;20212;-78
2022/12/07 11:34:50;;;;;;;5.90;2.07;;;8.30;99.90;;;;;;4861027;29;20646;-79
2022/12/07 11:37:21;;;;;;;3.97;1.80;;;8.00;99.90;;;;;;4861210;29;20242;-78
2022/12/07 11:39:52;;;;;;;3.90;2.00;;;7.80;99.90;;;;;;4860865;29;20214;-78
2022/12/07 11:42:24;;;;;;;6.63;2.00;;;7.80;99.90;;;;;;4861220;29;20207;-77
2022/12/07 11:44:56;;;;;;;6.27;2.03;;;8.00;99.90;;;;;;4860824;29;20664;-78
2022/12/07 11:47:29;;;;;;;1.90;1.70;;;8.10;99.90;;;;;;4860616;29;20257;-78
2022/12/07 11:50:04;;;;;;;3.40;1.77;;;8.10;99.90;;;;;;4860691;29;20208;-77
2022/12/07 11:52:41;;;;;;;6.57;2.00;;;8.20;99.90;;;;;;4860903;29;20260;-78
2022/12/07 11:55:19;;;;;;;3.73;2.20;;;8.30;99.90;;;;;;4860809;29;20207;-78
2022/12/07 11:57:53;;;;;;;4.57;2.00;;;8.20;99.90;;;;;;4860702;29;20235;-75
2022/12/07 12:00:21;;;;;;;4.17;1.90;;;8.10;99.90;;;;;;4860703;29;20215;-77
2022/12/07 12:02:54;;;;;;;8.27;2.00;;;8.20;99.90;;;;;;4860743;29;20207;-78
2022/12/07 12:05:25;;;;;;;2.47;1.50;;;8.40;99.90;;;;;;4860587;29;20216;-78
2022/12/07 12:08:00;;;;;;;6.63;1.93;;;8.20;99.90;;;;;;4860422;29;20301;-79
2022/12/07 12:10:37;;;;;;;4.97;1.80;;;8.30;99.90;;;;;;4860734;29;20211;-78
2022/12/07 12:13:22;;;;;;;3.60;2.20;;;8.30;99.90;;;;;;4860809;29;20635;-78
2022/12/07 12:16:13;;;;;;;7.87;2.30;;;8.30;99.90;;;;;;4860601;29;20216;-79
2022/12/07 12:18:58;;;;;;;5.10;1.90;;;8.60;99.90;;;;;;4860473;29;20223;-79
2022/12/07 12:21:29;;;;;;;2.77;1.50;;;8.90;99.90;;;;;;4860299;29;20566;-79
2022/12/07 12:24:00;;;;;;;3.97;1.50;;;9.00;99.90;;;;;;4860489;29;20219;-78
2022/12/07 12:26:29;;;;;;;3.27;1.10;;;9.00;99.90;;;;;;4860388;29;20646;-72
2022/12/07 12:28:59;;;;;;;3.70;1.40;;;9.10;99.90;;;;;;4860733;29;20222;-78
2022/12/07 12:31:36;;;;;;;2.33;1.20;;;8.90;99.90;;;;;;4863908;29;20671;-78
2022/12/07 12:34:05;;;;;;;3.13;1.60;;;8.80;99.90;;;;;;4863796;29;20268;-75
2022/12/07 12:36:47;;;;;;;3.13;1.30;;;8.90;99.90;;;;;;4864399;29;20236;-79
2022/12/07 12:39:16;;;;;;;2.97;1.13;;;8.90;99.90;;;;;;4864272;29;20671;-78
2022/12/07 12:42:18;;;;;;;4.33;1.00;;;8.70;99.90;;;;;;4864503;29;20231;-78
2022/12/07 12:45:19;;;;;;;2.00;0.90;;;8.60;99.90;;;;;;4857715;29;20212;-76
2022/12/07 12:48:04;;;;;;;2.90;0.90;;;8.60;99.90;;;;;;4864073;29;20240;-78
2022/12/07 12:50:34;;;;;;;2.00;1.30;;;8.60;99.90;;;;;;4863609;29;20232;-77
2022/12/07 12:53:18;;;;;;;4.03;1.60;;;8.40;99.90;;;;;;4863793;29;20215;-79
2022/12/07 12:56:12;;;;;;;2.40;1.07;;;8.30;99.90;;;;;;4863573;29;20219;-77
2022/12/07 12:58:45;;;;;;;3.50;1.00;;;8.30;99.90;;;;;;4863665;29;20216;-79
2022/12/07 13:01:47;;;;;;;2.10;1.00;;;8.50;99.90;;;;;;4863615;29;20212;-76
2022/12/07 13:04:29;;;;;;;2.67;0.90;;;8.50;99.90;;;;;;4863502;29;20238;-79
2022/12/07 13:06:56;;;;;;;1.83;1.07;;;8.40;99.90;;;;;;4858607;29;20231;-80
2022/12/07 13:09:28;;;;;;;0.63;0.40;;;8.40;99.90;;;;;;4862207;29;20218;-81
2022/12/07 13:12:05;;;;;;;2.60;0.50;;;8.40;99.90;;;;;;4862006;29;20215;-78
2022/12/07 13:14:44;;;;;;;0.77;0.50;;;8.40;99.90;;;;;;4861973;29;20218;-80
2022/12/07 13:17:12;;;;;;;1.43;0.80;;;8.40;99.90;;;;;;4844011;29;20301;-83
2022/12/07 13:20:01;;;;;;;2.50;0.63;;;8.40;99.90;;;;;;4843442;29;20219;-78
2022/12/07 13:22:53;;;;;;;2.00;0.90;;;8.30;99.90;;;;;;4845694;29;20213;-73
2022/12/07 13:25:31;;;;;;;5.27;1.00;;;8.30;99.90;;;;;;4849682;29;20222;-78
2022/12/07 13:28:02;;;;;;;5.87;1.43;;;8.30;99.90;;;;;;4864528;29;20253;-83
2022/12/07 13:30:30;;;;;;;4.40;1.00;;;8.20;99.90;;;;;;4862760;29;20227;-83
2022/12/07 13:32:59;;;;;;;5.47;1.20;;;8.20;99.90;;;;;;4862143;29;20232;-79
2022/12/07 13:35:35;;;;;;;1.60;0.90;;;8.10;99.90;;;;;;4861463;29;20303;-79
2022/12/07 13:38:05;;;;;;;7.23;1.13;;;8.20;99.90;;;;;;4862223;29;20242;-82
2022/12/07 13:40:34;;;;;;;4.23;1.10;;;8.30;99.90;;;;;;4861869;29;20218;-70
2022/12/07 13:43:03;;;;;;;4.07;1.10;;;8.40;99.90;;;;;;4861529;29;20216;-71
2022/12/07 13:45:51;;;;;;;1.90;1.20;;;8.50;99.90;;;;;;4861226;29;20222;-71
2022/12/07 13:48:28;;;;;;;1.67;1.20;;;8.50;99.90;;;;;;4861426;29;20689;-72
2022/12/07 13:50:56;;;;;;;3.47;1.27;;;8.40;99.90;;;;;;4860920;29;20329;-71
2022/12/07 13:53:23;;;;;;;6.53;1.00;;;8.50;99.90;;;;;;4861516;29;20323;-69
2022/12/07 13:55:52;;;;;;;2.83;0.73;;;8.30;99.90;;;;;;4861724;29;20216;-77
2022/12/07 13:58:18;;;;;;;3.47;1.00;;;8.40;99.90;;;;;;4861755;29;20212;-79
2022/12/07 14:00:45;;;;;;;1.10;0.73;;;8.50;99.90;;;;;;4861950;29;20208;-80
2022/12/07 14:03:30;;;;;;;0.90;0.77;;;8.50;99.90;;;;;;4862349;29;20212;-84
2022/12/07 14:06:19;;;;;;;4.20;0.70;;;8.60;99.90;;;;;;4861329;29;20222;-80
2022/12/07 14:08:45;;;;;;;2.53;0.97;;;8.60;99.90;;;;;;4861569;29;20327;-81
2022/12/07 14:11:17;;;;;;;3.77;1.30;;;8.80;99.90;;;;;;4861702;29;20219;-75
2022/12/07 14:13:58;;;;;;;7.13;2.10;;;8.90;99.90;;;;;;4862319;29;20598;-73
2022/12/07 14:16:28;;;;;;;1.50;0.80;;;9.10;99.90;;;;;;4857871;29;20239;-76
2022/12/07 14:18:56;;;;;;;1.57;0.90;;;9.10;99.90;;;;;;4848813;29;20205;-79
2022/12/07 14:21:25;;;;;;;2.17;0.87;;;8.90;99.90;;;;;;4849363;29;20217;-81
2022/12/07 14:24:18;;;;;;;1.60;1.00;;;8.60;99.90;;;;;;4850566;29;20641;-76
2022/12/07 14:26:47;;;;;;;1.03;0.50;;;8.20;99.90;;;;;;4853105;29;20798;-78
2022/12/07 14:29:21;;;;;;;1.50;0.80;;;7.90;99.90;;;;;;4851404;29;20236;-78
2022/12/07 14:31:48;;;;;;;1.07;0.70;;;7.70;99.90;;;;;;4846145;29;20574;-79
2022/12/07 14:34:15;;;;;;;1.20;0.80;;;7.60;99.90;;;;;;4841804;29;20209;-79
2022/12/07 14:36:42;;;;;;;3.60;0.93;;;7.50;99.90;;;;;;4842898;29;20595;-79
2022/12/07 14:39:09;;;;;;;2.20;0.80;;;7.50;99.90;;;;;;4842723;29;20213;-77
2022/12/07 14:41:54;;;;;;;1.30;0.80;;;7.40;99.90;;;;;;4843701;29;20215;-71
2022/12/07 14:44:24;;;;;;;1.70;1.10;;;7.40;99.90;;;;;;4846310;29;20239;-74
2022/12/07 14:46:52;;;;;;;1.90;1.40;;;7.30;99.90;;;;;;4844397;29;20236;-80
2022/12/07 14:49:19;;;;;;;1.00;0.80;;;7.30;99.90;;;;;;4841971;29;20237;-72
2022/12/07 14:51:47;;;;;;;3.80;1.23;;;7.30;99.90;;;;;;4840606;29;20288;-70
2022/12/07 14:54:18;;;;;;;2.20;1.40;;;7.30;99.90;;;;;;4855140;29;20208;-71
2022/12/07 14:56:45;;;;;;;2.50;1.60;;;7.30;99.90;;;;;;4857071;29;20236;-70
2022/12/07 14:59:13;;;;;;;2.03;1.40;;;7.30;99.90;;;;;;4858670;29;20212;-74
2022/12/07 15:01:41;;;;;;;2.07;1.77;;;7.30;99.90;;;;;;4853827;29;20216;-74
2022/12/07 15:04:08;;;;;;;4.43;1.83;;;7.20;99.90;;;;;;4853923;29;20215;-72
2022/12/07 15:06:35;;;;;;;1.70;1.30;;;7.30;99.90;;;;;;4842944;29;20266;-77
2022/12/07 15:09:10;;;;;;;1.93;1.33;;;7.20;99.90;;;;;;4858236;29;20232;-76
2022/12/07 15:11:36;;;;;;;2.67;1.77;;;7.30;99.90;;;;;;4863767;29;20333;-78
2022/12/07 15:14:16;;;;;;;2.73;1.40;;;7.30;99.90;;;;;;4861082;29;20205;-80
2022/12/07 15:16:45;;;;;;;2.00;1.30;;;7.30;99.90;;;;;;4863485;29;20234;-78
2022/12/07 15:19:13;;;;;;;1.77;1.20;;;7.20;99.90;;;;;;4856350;29;20215;-81
2022/12/07 15:21:41;;;;;;;2.90;1.13;;;7.20;99.90;;;;;;4859169;29;20277;-77
2022/12/07 15:24:10;;;;;;;2.93;1.13;;;7.10;99.90;;;;;;4855684;29;20307;-81
2022/12/07 15:26:36;;;;;;;4.07;1.30;;;7.20;99.90;;;;;;4858767;29;20235;-70
2022/12/07 15:29:04;;;;;;;3.87;1.30;;;7.20;99.90;;;;;;4851221;29;20247;-70
2022/12/07 15:31:30;;;;;;;2.93;1.10;;;7.30;99.90;;;;;;4854279;29;20213;-70
2022/12/07 15:33:59;;;;;;;2.93;1.40;;;7.30;99.90;;;;;;4849760;29;20215;-71
2022/12/07 15:36:28;;;;;;;5.17;1.17;;;7.40;99.90;;;;;;4854533;29;20565;-70
2022/12/07 15:38:56;;;;;;;3.30;1.23;;;7.30;99.90;;;;;;4843904;29;20218;-71
2022/12/07 15:41:23;;;;;;;1.93;1.03;;;7.40;99.90;;;;;;4852932;29;20219;-79
2022/12/07 15:46:37;;;;;;;3.53;1.20;;;7.40;99.90;;;;;;4847595;29;20642;-79
2022/12/07 15:49:06;;;;;;;3.87;1.00;;;7.30;99.90;;;;;;4855506;29;20244;-79
2022/12/07 15:51:33;;;;;;;4.07;0.87;;;7.20;99.90;;;;;;4850229;29;20215;-78
2022/12/07 15:54:00;;;;;;;2.07;1.20;;;7.20;99.90;;;;;;4856642;29;20659;-80
2022/12/07 15:56:27;;;;;;;3.17;1.30;;;7.10;99.90;;;;;;4847188;29;20236;-80
2022/12/07 15:58:54;;;;;;;4.00;1.33;;;7.20;99.90;;;;;;4856434;29;20679;-77
2022/12/07 16:01:21;;;;;;;2.20;1.07;;;7.10;99.90;;;;;;4852489;29;20275;-79
2022/12/07 16:03:48;;;;;;;1.83;1.00;;;7.00;99.90;;;;;;4855980;29;20239;-81
2022/12/07 16:06:19;;;;;;;1.87;1.20;;;7.00;99.90;;;;;;4853986;29;20598;-80
2022/12/07 16:08:47;;;;;;;3.47;1.07;;;6.90;99.90;;;;;;4861487;29;20330;-80
2022/12/07 16:11:14;;;;;;;2.57;1.30;;;6.90;99.90;;;;;;4851811;29;20212;-76
2022/12/07 16:13:41;;;;;;;7.07;1.47;;;6.90;99.90;;;;;;4860703;29;20208;-80
2022/12/07 16:16:12;;;;;;;3.27;1.67;;;6.90;99.90;;;;;;4850437;29;20227;-80
2022/12/07 16:18:39;;;;;;;3.67;1.33;;;7.00;99.90;;;;;;4858316;29;20212;-80
2022/12/07 16:21:06;;;;;;;4.07;1.40;;;7.10;99.90;;;;;;4858703;29;20212;-82
2022/12/07 16:23:36;;;;;;;2.23;1.03;;;7.20;99.90;;;;;;4857397;29;20228;-81
2022/12/07 16:26:08;;;;;;;2.97;1.17;;;7.20;99.90;;;;;;4857008;29;20235;-79
2022/12/07 16:28:35;;;;;;;8.57;2.00;;;7.30;99.90;;;;;;4857142;29;20310;-75
2022/12/07 16:31:06;;;;;;;4.20;1.90;;;7.20;99.90;;;;;;4856486;29;20216;-77
2022/12/07 16:33:35;;;;;;;4.87;1.83;;;7.30;99.90;;;;;;4855700;29;20209;-80
2022/12/07 16:36:03;;;;;;;6.60;1.77;;;7.20;99.90;;;;;;4859083;29;20236;-80
2022/12/07 16:38:29;;;;;;;6.27;1.80;;;7.30;99.90;;;;;;4857447;29;20298;-80
2022/12/07 16:40:58;;;;;;;2.80;1.50;;;7.30;99.90;;;;;;4854249;29;20691;-78
2022/12/07 16:43:25;;;;;;;5.00;1.67;;;7.20;99.90;;;;;;4852165;29;20204;-81
2022/12/07 16:45:52;;;;;;;3.77;1.40;;;7.20;99.90;;;;;;4852748;29;20734;-80
2022/12/07 16:48:19;;;;;;;2.03;1.40;;;7.30;99.90;;;;;;4855057;29;20914;-79
2022/12/07 16:50:47;;;;;;;4.60;1.60;;;7.30;99.90;;;;;;4863096;29;20668;-74
2022/12/07 16:53:15;;;;;;;6.33;2.10;;;7.30;99.90;;;;;;4862054;29;20222;-78
2022/12/07 16:55:44;;;;;;;3.90;1.70;;;7.30;99.90;;;;;;4862347;29;20212;-76
2022/12/07 16:58:13;;;;;;;4.83;2.40;;;7.20;99.90;;;;;;4862657;29;20587;-79
2022/12/07 17:00:42;;;;;;;11.60;4.23;;;7.20;99.90;;;;;;4863363;29;20211;-83
2022/12/07 17:03:09;;;;;;;8.80;3.03;;;7.30;99.90;;;;;;4863852;29;20247;-74
2022/12/07 17:05:39;;;;;;;2.30;1.50;;;7.30;99.90;;;;;;4863843;29;20218;-73
2022/12/07 17:08:06;;;;;;;5.27;1.90;;;7.30;99.90;;;;;;4863275;29;20722;-82
2022/12/07 17:10:35;;;;;;;5.13;1.60;;;7.40;99.90;;;;;;4863947;29;20216;-76
2022/12/07 17:13:02;;;;;;;6.80;2.10;;;7.30;99.90;;;;;;4863267;29;20216;-76
2022/12/07 17:15:29;;;;;;;7.37;2.20;;;7.30;99.90;;;;;;4862531;29;20215;-70
2022/12/07 17:17:58;;;;;;;4.83;2.00;;;7.30;99.90;;;;;;4863294;29;20711;-71
2022/12/07 17:20:26;;;;;;;3.87;1.93;;;7.10;99.90;;;;;;4863011;29;20216;-73
2022/12/07 17:22:54;;;;;;;6.17;2.03;;;7.10;99.90;;;;;;4862998;29;20299;-70
2022/12/07 17:25:22;;;;;;;4.47;1.97;;;7.10;99.90;;;;;;4863210;29;20260;-70
2022/12/07 17:27:50;;;;;;;2.60;1.40;;;7.20;99.90;;;;;;4863145;29;20235;-72
2022/12/07 17:30:17;;;;;;;2.73;1.50;;;7.20;99.90;;;;;;4863224;29;20235;-79
2022/12/07 17:32:45;;;;;;;5.50;2.07;;;7.10;99.90;;;;;;4862862;29;20212;-82
2022/12/07 17:35:12;;;;;;;8.83;2.60;;;7.10;99.90;;;;;;4863415;29;20212;-81
2022/12/07 17:37:38;;;;;;;7.90;2.23;;;7.10;99.90;;;;;;4862942;29;20244;-74
2022/12/07 17:40:07;;;;;;;2.87;1.87;;;7.00;99.90;;;;;;4862906;29;20209;-78
2022/12/07 17:42:36;;;;;;;3.83;1.83;;;7.00;99.90;;;;;;4862997;29;20212;-78
2022/12/07 17:45:04;;;;;;;4.27;1.90;;;7.00;99.90;;;;;;4862941;29;20215;-82
2022/12/07 17:47:31;;;;;;;6.53;2.30;;;6.90;99.90;;;;;;4863224;29;20591;-75
2022/12/07 17:49:59;;;;;;;5.07;2.07;;;6.90;99.90;;;;;;4862955;29;20725;-77
2022/12/07 17:55:15;;;;;;;5.43;2.43;;;6.80;99.90;;;;;;4839002;29;20211;-79
2022/12/07 17:57:43;;;;;;;6.87;2.37;;;6.90;99.90;;;;;;4862592;29;20232;-82
2022/12/07 18:00:11;;;;;;;7.47;2.20;;;6.90;99.90;;;;;;4862823;29;20250;-81
2022/12/07 18:02:38;;;;;;;5.13;2.00;;;6.90;99.90;;;;;;4862721;29;20302;-81
2022/12/07 18:05:07;;;;;;;3.97;2.40;;;7.00;99.90;;;;;;4862584;29;20208;-82
2022/12/07 18:07:34;;;;;;;6.80;2.63;;;7.00;99.90;;;;;;4862360;29;20232;-80
2022/12/07 18:10:01;;;;;;;5.40;2.60;;;6.80;99.90;;;;;;4862350;29;20243;-80
2022/12/07 18:12:27;;;;;;;5.40;2.40;;;6.80;99.90;;;;;;4862921;29;20222;-82
2022/12/07 18:14:54;;;;;;;6.07;2.67;;;6.80;99.90;;;;;;4862524;29;20671;-82
2022/12/07 18:17:21;;;;;;;7.40;3.03;;;6.80;99.90;;;;;;4862475;29;20231;-78
2022/12/07 18:19:48;;;;;;;6.67;3.40;;;6.60;99.90;;;;;;4862637;29;20567;-83
2022/12/07 18:22:16;;;;;;;6.27;3.50;;;6.70;99.90;;;;;;4862374;29;20303;-78
2022/12/07 18:24:43;;;;;;;9.47;3.80;;;6.50;99.90;;;;;;4862339;29;20222;-82
2022/12/07 18:27:10;;;;;;;4.97;3.00;;;6.50;99.90;;;;;;4861530;29;20700;-76
2022/12/07 18:29:37;;;;;;;5.77;3.10;;;6.50;99.90;;;;;;4862303;29;20240;-76
2022/12/07 18:32:04;;;;;;;7.43;2.40;;;6.50;99.90;;;;;;4862150;29;20306;-75
2022/12/07 18:34:32;;;;;;;6.67;3.23;;;6.50;99.90;;;;;;4862244;29;20268;-78
2022/12/07 18:36:58;;;;;;;11.20;3.87;;;6.40;99.90;;;;;;4861925;29;20719;-77
2022/12/07 18:39:27;;;;;;;9.87;3.40;;;6.30;99.90;;;;;;4861864;29;20580;-82
2022/12/07 18:41:54;;;;;;;7.60;3.57;;;6.30;99.90;;;;;;4862146;29;20672;-81
2022/12/07 18:44:20;;;;;;;7.40;3.87;;;6.20;99.90;;;;;;4861998;29;20215;-83
2022/12/07 18:46:47;;;;;;;9.10;3.70;;;6.20;99.90;;;;;;4861853;29;20231;-78
2022/12/07 18:49:15;;;;;;;5.73;3.40;;;6.10;99.90;;;;;;4862374;29;20240;-78
2022/12/07 18:51:43;;;;;;;9.10;3.67;;;6.10;99.90;;;;;;4861857;29;20230;-83
2022/12/07 18:54:11;;;;;;;8.10;3.70;;;6.10;99.90;;;;;;4861852;29;20223;-81
2022/12/07 18:56:39;;;;;;;9.70;3.40;;;6.10;99.90;;;;;;4861475;29;20228;-76
2022/12/07 19:01:51;;;;;;;5.37;3.23;;;5.90;99.90;;;;;;4861536;29;20214;-75
2022/12/07 19:04:19;;;;;;;6.43;4.00;;;5.80;99.90;;;;;;4861706;29;20591;-75
2022/12/07 19:06:47;;;;;;;7.53;3.87;;;5.80;99.90;;;;;;4861510;29;20242;-82
2022/12/07 19:09:15;;;;;;;5.90;3.83;;;5.80;99.90;;;;;;4861184;29;20745;-79
2022/12/07 19:11:49;;;;;;;10.47;4.30;;;5.80;99.90;;;;;;4861458;29;20227;-82
2022/12/07 19:14:17;;;;;;;7.70;4.30;;;5.80;99.90;;;;;;4861400;29;20648;-79
2022/12/07 19:16:45;;;;;;;8.63;4.47;;;5.90;99.90;;;;;;4861099;29;20323;-77
2022/12/07 19:19:12;;;;;;;8.93;4.60;;;5.90;99.90;;;;;;4861394;29;20216;-79
2022/12/07 19:21:39;;;;;;;8.57;4.50;;;6.00;99.90;;;;;;4861129;29;20220;-79
2022/12/07 19:24:06;;;;;;;6.27;4.30;;;5.90;99.90;;;;;;4860989;29;20303;-82
2022/12/07 19:26:33;;;;;;;8.70;4.57;;;6.00;99.90;;;;;;4861120;29;20236;-79
2022/12/07 19:29:02;;;;;;;7.33;4.10;;;6.10;99.90;;;;;;4861101;29;20245;-77
2022/12/07 19:31:28;;;;;;;7.73;3.87;;;6.20;99.90;;;;;;4861092;29;20549;-80
2022/12/07 19:33:56;;;;;;;12.37;4.30;;;6.20;99.90;;;;;;4861382;29;20216;-81
2022/12/07 19:36:23;;;;;;;6.47;4.13;;;6.20;99.90;;;;;;4861051;29;20260;-81
2022/12/07 19:38:50;;;;;;;8.77;4.27;;;6.20;99.90;;;;;;4861205;29;20220;-78
2022/12/07 19:41:36;;;;;;;8.50;4.17;;;6.20;99.90;;;;;;4860981;29;20567;-80
2022/12/07 19:44:07;;;;;;;6.03;3.23;;;6.10;99.90;;;;;;4861023;29;20212;-79
2022/12/07 19:46:34;;;;;;;7.60;3.67;;;6.10;99.90;;;;;;4860601;29;20242;-77
2022/12/07 19:49:01;;;;;;;5.80;3.60;;;6.30;99.90;;;;;;4860593;29;20623;-79
2022/12/07 19:51:28;;;;;;;10.20;4.40;;;6.30;99.90;;;;;;4860781;29;20211;-77
2022/12/07 19:53:57;;;;;;;7.53;3.73;;;6.10;99.90;;;;;;4860870;29;20212;-76
2022/12/07 19:56:25;;;;;;;4.73;3.00;;;6.10;99.90;;;;;;4860722;29;20323;-77
2022/12/07 19:58:52;;;;;;;7.50;3.90;;;6.00;99.90;;;;;;4860917;29;20307;-79
2022/12/07 20:01:21;;;;;;;8.17;4.30;;;6.10;99.90;;;;;;4860788;29;20218;-77
2022/12/07 20:03:48;;;;;;;12.83;4.23;;;6.00;99.90;;;;;;4860952;29;20250;-80
2022/12/07 20:06:17;;;;;;;6.57;3.70;;;5.90;99.90;;;;;;4860478;29;20770;-80
2022/12/07 20:08:45;;;;;;;6.17;3.70;;;5.90;99.90;;;;;;4860580;29;20302;-79
2022/12/07 20:13:57;;;;;;;13.77;4.10;;;5.80;99.90;;;;;;4860975;29;20683;-82
2022/12/07 20:16:25;;;;;;;6.47;3.40;;;5.70;99.90;;;;;;4860575;29;20232;-83
2022/12/07 20:18:53;;;;;;;9.53;3.70;;;5.70;99.90;;;;;;4861177;29;20218;-80
2022/12/07 20:21:20;;;;;;;9.07;3.90;;;5.70;99.90;;;;;;4860790;29;20311;-82
2022/12/07 20:23:47;;;;;;;6.17;3.50;;;5.70;99.90;;;;;;4860929;29;20583;-80
2022/12/07 20:26:14;;;;;;;8.53;3.17;;;5.60;99.90;;;;;;4853055;29;20238;-79
2022/12/07 20:28:45;;;;;;;5.93;3.20;;;5.60;99.90;;;;;;4849423;29;20231;-79
2022/12/07 20:31:13;;;;;;;6.30;3.33;;;5.60;99.90;;;;;;4850482;29;20242;-80
2022/12/07 20:33:44;;;;;;;6.93;3.53;;;5.60;99.90;;;;;;4853194;29;20656;-80
2022/12/07 20:36:12;;;;;;;5.97;2.63;;;5.70;99.90;;;;;;4851503;29;20591;-80
2022/12/07 20:38:40;;;;;;;6.23;3.33;;;5.60;99.90;;;;;;4848736;29;20240;-81
2022/12/07 20:42:35;;;;;;;6.50;3.13;;;5.60;99.90;;;;;;4852995;29;20272;-79
2022/12/07 20:43:56;;;;;;;4.50;2.87;;;5.70;99.90;;;;;;4858662;29;20552;-79
2022/12/07 20:46:23;;;;;;;7.00;2.83;;;5.70;99.90;;;;;;4862406;29;20235;-79
2022/12/07 20:48:51;;;;;;;9.67;3.80;;;5.60;99.90;;;;;;4858481;29;20216;-79
2022/12/07 20:51:18;;;;;;;7.60;2.80;;;5.40;99.90;;;;;;4861743;29;20216;-81
2022/12/07 20:53:45;;;;;;;4.90;2.70;;;5.30;99.90;;;;;;4861536;29;20209;-80
2022/12/07 20:56:19;;;;;;;3.83;2.23;;;5.40;99.90;;;;;;4863189;29;20247;-78
2022/12/07 20:58:46;;;;;;;4.90;2.50;;;5.30;99.90;;;;;;4857453;29;20583;-81
2022/12/07 21:01:13;;;;;;;5.37;2.83;;;5.30;99.90;;;;;;4870407;29;20212;-77
2022/12/07 21:03:39;;;;;;;4.57;2.73;;;5.40;99.90;;;;;;4870541;29;20204;-79
2022/12/07 21:06:08;;;;;;;4.13;2.70;;;5.50;99.90;;;;;;4875766;29;20227;-74
2022/12/07 21:08:35;;;;;;;5.50;2.80;;;5.50;99.90;;;;;;4854142;29;20580;-80
2022/12/07 21:11:08;;;;;;;5.13;3.07;;;5.40;99.90;;;;;;4859953;29;20236;-80
2022/12/07 21:13:34;;;;;;;8.70;2.90;;;5.40;99.90;;;;;;4856791;29;20215;-81
2022/12/07 21:16:07;;;;;;;5.80;2.60;;;5.40;99.90;;;;;;4857889;29;20258;-80
2022/12/07 21:18:34;;;;;;;5.20;3.10;;;5.50;99.90;;;;;;4856666;29;20682;-80
2022/12/07 21:21:02;;;;;;;5.70;2.93;;;5.60;99.90;;;;;;4857224;29;20232;-76
2022/12/07 21:23:30;;;;;;;5.93;3.07;;;5.70;99.90;;;;;;4862242;29;20219;-79
2022/12/07 21:25:57;;;;;;;5.93;3.07;;;5.70;99.90;;;;;;4848921;29;20669;-79
2022/12/07 21:28:24;;;;;;;8.50;3.50;;;5.60;99.90;;;;;;4850498;29;20222;-79
2022/12/07 21:30:51;;;;;;;5.27;2.93;;;5.60;99.90;;;;;;4855163;29;20247;-78
2022/12/07 21:33:18;;;;;;;7.97;2.93;;;5.60;99.90;;;;;;4860860;29;20660;-80
2022/12/07 21:35:44;;;;;;;6.07;3.23;;;5.70;99.90;;;;;;4862777;29;20215;-76
2022/12/07 21:38:11;;;;;;;4.80;2.70;;;5.60;99.90;;;;;;4862834;29;20559;-78
2022/12/07 21:40:39;;;;;;;7.70;2.70;;;5.60;99.90;;;;;;4863138;29;20219;-80
2022/12/07 21:43:06;;;;;;;5.00;2.70;;;5.50;99.90;;;;;;4862686;29;20207;-80
2022/12/07 21:45:33;;;;;;;5.70;2.43;;;5.60;99.90;;;;;;4862666;29;20212;-80
2022/12/07 21:48:00;;;;;;;10.50;3.83;;;5.70;99.90;;;;;;4863432;29;20591;-80
2022/12/07 21:50:26;;;;;;;6.30;2.90;;;5.70;99.90;;;;;;4862987;29;20251;-80
2022/12/07 21:52:53;;;;;;;8.03;2.93;;;5.70;99.90;;;;;;4862465;29;20222;-79
2022/12/07 21:55:20;;;;;;;6.10;2.80;;;5.70;99.90;;;;;;4862519;29;20303;-80
2022/12/07 21:57:48;;;;;;;4.20;2.70;;;5.80;99.90;;;;;;4862362;29;20228;-79